createdAt,value
2022-11-24T00:05:19.573Z,9.93
2022-11-24T00:11:10.033Z,9.81
2022-11-24T00:16:56.725Z,9.81
2022-11-24T00:22:43.584Z,9.73
2022-11-24T00:28:33.549Z,9.77
2022-11-24T00:34:20.239Z,9.64
2022-11-24T00:40:07.772Z,9.74
2022-11-24T00:45:54.590Z,9.77
2022-11-24T00:51:41.957Z,10.00
2022-11-24T00:57:31.188Z,9.73
2022-11-24T01:03:19.350Z,9.73
2022-11-24T01:09:05.998Z,9.87
2022-11-24T01:14:52.662Z,9.66
2022-11-24T01:20:42.429Z,9.39
2022-11-24T01:26:29.120Z,9.59
2022-11-24T01:32:15.822Z,9.51
2022-11-24T01:38:02.450Z,9.43
2022-11-24T01:43:50.922Z,9.25
2022-11-24T01:49:51.459Z,9.28
2022-11-24T01:55:40.134Z,9.19
2022-11-24T02:01:29.279Z,8.98
2022-11-24T02:07:16.385Z,8.83
2022-11-24T02:13:04.001Z,8.88
2022-11-24T02:18:51.196Z,8.88
2022-11-24T02:24:52.699Z,8.69
2022-11-24T02:30:39.443Z,8.52
2022-11-24T02:36:26.024Z,8.55
2022-11-24T02:42:13.973Z,8.54
2022-11-24T02:48:00.636Z,8.55
2022-11-24T02:53:47.243Z,8.66
2022-11-24T02:59:33.894Z,8.59
2022-11-24T03:05:20.476Z,8.75
2022-11-24T03:11:07.144Z,8.81
2022-11-24T03:16:53.797Z,8.55
2022-11-24T03:22:41.614Z,8.72
2022-11-24T03:28:28.303Z,8.73
2022-11-24T03:34:14.918Z,8.63
2022-11-24T03:40:01.736Z,8.57
2022-11-24T03:45:49.274Z,8.65
2022-11-24T03:51:36.300Z,8.61
2022-11-24T03:57:23.013Z,8.61
2022-11-24T04:03:09.828Z,8.63
2022-11-24T04:08:56.596Z,8.71
2022-11-24T04:14:43.247Z,8.75
2022-11-24T04:20:29.885Z,8.70
2022-11-24T04:26:16.557Z,8.82
2022-11-24T04:32:03.279Z,8.77
2022-11-24T04:37:50.037Z,8.77
2022-11-24T04:43:40.591Z,8.77
2022-11-24T04:49:27.608Z,8.80
2022-11-24T04:55:14.611Z,8.91
2022-11-24T05:01:01.323Z,8.85
2022-11-24T05:06:48.305Z,8.88
2022-11-24T05:12:34.927Z,8.85
2022-11-24T05:18:22.258Z,8.74
2022-11-24T05:24:10.710Z,8.85
2022-11-24T05:29:57.847Z,8.99
2022-11-24T05:35:49.121Z,8.91
2022-11-24T05:41:35.840Z,8.94
2022-11-24T05:47:22.571Z,8.89
2022-11-24T05:53:12.254Z,8.90
2022-11-24T05:58:58.930Z,8.83
2022-11-24T06:04:45.571Z,8.77
2022-11-24T06:10:32.226Z,8.82
2022-11-24T06:16:18.902Z,8.91
2022-11-24T06:22:06.017Z,8.94
2022-11-24T06:27:52.835Z,9.01
2022-11-24T06:33:39.527Z,9.11
2022-11-24T06:39:26.299Z,8.89
2022-11-24T06:45:13.044Z,8.70
2022-11-24T06:51:05.585Z,8.63
2022-11-24T06:56:56.352Z,8.56
2022-11-24T07:02:46.110Z,8.50
2022-11-24T07:08:33.105Z,8.52
2022-11-24T07:14:20.173Z,8.37
2022-11-24T07:20:08.964Z,8.22
2022-11-24T07:25:55.972Z,8.11
2022-11-24T07:31:43.398Z,8.19
2022-11-24T07:37:31.916Z,8.20
2022-11-24T07:43:20.400Z,8.28
2022-11-24T07:49:08.990Z,8.38
2022-11-24T07:54:55.816Z,8.49
2022-11-24T08:00:43.212Z,8.59
2022-11-24T08:06:38.485Z,8.77
2022-11-24T08:12:29.037Z,8.99
2022-11-24T08:18:17.489Z,9.10
2022-11-24T08:24:04.650Z,9.16
2022-11-24T08:29:51.703Z,9.36
2022-11-24T08:35:41.077Z,9.31
2022-11-24T08:41:28.871Z,9.51
2022-11-24T08:47:15.678Z,9.47
2022-11-24T08:53:02.488Z,9.48
2022-11-24T08:58:49.308Z,9.53
2022-11-24T09:04:36.405Z,9.56
2022-11-24T09:10:23.437Z,9.62
2022-11-24T09:16:48.330Z,10.14
2022-11-24T09:22:40.138Z,10.16
2022-11-24T09:28:26.995Z,10.39
2022-11-24T09:34:17.106Z,10.50
2022-11-24T09:40:04.461Z,10.35
2022-11-24T09:46:23.161Z,10.15
2022-11-24T09:52:23.996Z,10.23
2022-11-24T09:58:48.582Z,10.48
2022-11-24T10:04:42.989Z,10.75
2022-11-24T10:10:45.369Z,10.95
2022-11-24T10:23:41.381Z,11.13
2022-11-24T10:29:37.863Z,11.18
2022-11-24T10:35:40.740Z,11.34
2022-11-24T10:41:41.443Z,11.64
2022-11-24T10:47:31.721Z,12.10
2022-11-24T10:53:29.546Z,12.12
2022-11-24T10:59:34.863Z,12.43
2022-11-24T11:05:47.625Z,12.58
2022-11-24T11:11:41.123Z,12.65
2022-11-24T11:17:39.040Z,12.68
2022-11-24T11:23:31.213Z,12.75
2022-11-24T11:35:47.637Z,12.92
2022-11-24T11:41:51.689Z,13.06
2022-11-24T11:47:56.891Z,13.13
2022-11-24T11:53:55.357Z,13.25
2022-11-24T12:00:26.552Z,13.24
2022-11-24T12:06:32.820Z,13.36
2022-11-24T12:12:47.846Z,13.18
2022-11-24T12:18:57.917Z,13.21
2022-11-24T12:32:30.527Z,13.28
2022-11-24T13:05:06.787Z,13.57
2022-11-24T13:57:35.347Z,12.93
2022-11-24T14:04:21.426Z,12.76
2022-11-24T14:09:58.269Z,12.67
2022-11-24T14:16:27.455Z,12.81
2022-11-24T14:22:16.989Z,12.85
2022-11-24T14:28:35.584Z,12.93
2022-11-24T14:34:27.345Z,13.02
2022-11-24T14:40:39.737Z,12.86
2022-11-24T14:46:29.292Z,12.92
2022-11-24T14:52:19.415Z,12.86
2022-11-24T14:58:41.742Z,12.94
2022-11-24T15:10:44.897Z,12.96
2022-11-24T15:16:31.871Z,12.74
2022-11-24T15:22:41.844Z,12.68
2022-11-24T15:28:30.196Z,12.63
2022-11-24T15:40:23.112Z,12.64
2022-11-24T15:53:05.764Z,12.76
2022-11-24T15:59:09.143Z,12.75
2022-11-24T16:05:10.804Z,12.76
2022-11-24T16:10:59.922Z,12.65
2022-11-24T16:16:48.968Z,12.53
2022-11-24T16:22:36.270Z,12.47
2022-11-24T16:28:23.976Z,12.19
2022-11-24T16:34:36.525Z,12.12
2022-11-24T16:41:07.286Z,12.18
2022-11-24T16:47:42.169Z,12.06
2022-11-24T16:53:32.415Z,12.04
2022-11-24T16:59:28.628Z,12.01
2022-11-24T17:05:19.277Z,11.77
2022-11-24T17:11:11.811Z,11.88
2022-11-24T17:16:59.305Z,11.89
2022-11-24T17:22:48.770Z,11.88
2022-11-24T17:28:36.736Z,11.90
2022-11-24T17:34:24.481Z,11.87
2022-11-24T17:40:34.561Z,11.78
2022-11-24T17:46:25.536Z,11.72
2022-11-24T17:52:12.714Z,11.67
2022-11-24T17:58:00.279Z,11.60
2022-11-24T18:03:53.515Z,11.57
2022-11-24T18:09:40.803Z,11.33
2022-11-24T18:15:27.840Z,11.30
2022-11-24T18:21:17.642Z,11.14
2022-11-24T18:27:05.967Z,11.16
2022-11-24T18:33:04.797Z,11.20
2022-11-24T18:38:52.150Z,11.21
2022-11-24T18:44:49.830Z,11.05
2022-11-24T18:51:01.815Z,11.02
2022-11-24T18:56:52.150Z,11.05
2022-11-24T19:02:43.946Z,11.11
2022-11-24T19:08:31.216Z,11.21
2022-11-24T19:14:20.448Z,11.23
2022-11-24T19:20:08.153Z,11.35
2022-11-24T19:25:55.832Z,11.35
2022-11-24T19:31:45.850Z,11.34
2022-11-24T19:37:32.886Z,11.13
2022-11-24T19:43:19.876Z,11.43
2022-11-24T19:49:08.958Z,11.60
2022-11-24T19:54:55.951Z,11.41
2022-11-24T20:00:44.902Z,11.36
2022-11-24T20:06:37.344Z,11.35
2022-11-24T20:12:24.211Z,11.32
2022-11-24T20:18:11.689Z,11.16
2022-11-24T20:24:00.457Z,11.09
2022-11-24T20:29:47.310Z,11.01
2022-11-24T20:35:34.243Z,11.11
2022-11-24T20:41:25.249Z,11.01
2022-11-24T20:47:12.021Z,11.02
2022-11-24T20:53:01.674Z,10.88
2022-11-24T20:58:49.533Z,10.91
2022-11-24T21:04:37.129Z,10.96
2022-11-24T21:10:24.716Z,10.74
2022-11-24T21:16:13.190Z,10.78
2022-11-24T21:22:00.164Z,10.59
2022-11-24T21:27:46.920Z,10.61
2022-11-24T21:33:34.321Z,10.76
2022-11-24T21:39:21.256Z,10.63
2022-11-24T21:45:11.651Z,10.48
2022-11-24T21:51:01.529Z,10.52
2022-11-24T21:56:48.413Z,10.44
2022-11-24T22:02:35.198Z,10.39
2022-11-24T22:08:53.308Z,10.40
2022-11-24T22:14:48.022Z,10.44
2022-11-24T22:21:05.887Z,10.35
2022-11-24T22:27:02.893Z,10.44
2022-11-24T22:32:59.022Z,10.43
2022-11-24T22:40:03.227Z,10.24
2022-11-24T22:46:20.306Z,10.24
2022-11-24T22:52:11.394Z,10.30
2022-11-24T22:58:00.313Z,10.35
2022-11-24T23:03:50.597Z,10.17
2022-11-24T23:09:40.096Z,10.23
2022-11-24T23:15:26.999Z,10.31
2022-11-24T23:21:21.041Z,10.24
2022-11-24T23:27:07.923Z,10.24
2022-11-24T23:32:54.741Z,10.14
2022-11-24T23:38:42.467Z,10.22
2022-11-24T23:44:29.551Z,10.21
2022-11-24T23:50:17.592Z,10.14
2022-11-24T23:56:07.872Z,10.23
